createdAt,value
2022-11-30T00:00:37.860Z,88.84
2022-11-30T00:05:55.319Z,89.84
2022-11-30T00:10:57.232Z,90.26
2022-11-30T00:16:00.597Z,90.34
2022-11-30T00:21:05.866Z,90.39
2022-11-30T00:26:10.414Z,90.93
2022-11-30T00:31:14.395Z,90.17
2022-11-30T00:36:19.807Z,89.77
2022-11-30T00:41:21.783Z,88.85
2022-11-30T00:46:23.719Z,89.90
2022-11-30T00:51:27.009Z,90.06
2022-11-30T00:56:28.912Z,90.99
2022-11-30T01:01:31.626Z,91.23
2022-11-30T01:06:34.905Z,91.88
2022-11-30T01:11:36.851Z,90.52
2022-11-30T01:16:38.919Z,89.60
2022-11-30T01:21:42.202Z,90.88
2022-11-30T01:26:44.132Z,89.91
2022-11-30T01:31:46.125Z,88.84
2022-11-30T01:36:49.375Z,88.72
2022-11-30T01:41:53.333Z,88.34
2022-11-30T01:47:00.126Z,88.86
2022-11-30T01:52:07.669Z,88.83
2022-11-30T01:57:14.829Z,88.04
2022-11-30T02:02:21.684Z,87.14
2022-11-30T02:07:25.155Z,88.17
2022-11-30T02:12:37.621Z,88.73
2022-11-30T02:17:51.217Z,88.88
2022-11-30T02:23:13.616Z,88.96
2022-11-30T02:28:38.656Z,89.40
2022-11-30T02:33:42.964Z,89.85
2022-11-30T02:38:45.887Z,89.70
2022-11-30T02:43:49.339Z,89.49
2022-11-30T02:49:02.041Z,89.33
2022-11-30T02:54:04.215Z,89.59
2022-11-30T02:59:07.588Z,88.23
2022-11-30T03:04:09.535Z,88.16
2022-11-30T03:09:11.470Z,88.57
2022-11-30T03:14:14.711Z,90.72
2022-11-30T03:19:16.645Z,89.17
2022-11-30T03:24:18.562Z,90.00
2022-11-30T03:29:21.936Z,90.50
2022-11-30T03:34:26.463Z,89.39
2022-11-30T03:39:28.518Z,89.71
2022-11-30T03:44:31.819Z,90.88
2022-11-30T03:49:33.779Z,90.29
2022-11-30T03:54:35.746Z,91.43
2022-11-30T03:59:38.964Z,91.77
2022-11-30T04:04:40.861Z,90.75
2022-11-30T04:09:42.757Z,89.47
2022-11-30T04:14:46.218Z,88.87
2022-11-30T04:19:48.402Z,89.77
2022-11-30T04:24:50.383Z,89.43
2022-11-30T04:29:53.637Z,90.38
2022-11-30T04:34:55.555Z,89.50
2022-11-30T04:39:57.534Z,89.49
2022-11-30T04:45:00.815Z,89.10
2022-11-30T04:50:03.542Z,89.48
2022-11-30T04:55:06.568Z,89.10
2022-11-30T05:00:11.601Z,88.42
2022-11-30T05:05:13.892Z,88.61
2022-11-30T05:10:15.949Z,88.62
2022-11-30T05:15:19.681Z,88.40
2022-11-30T05:20:21.609Z,88.14
2022-11-30T05:25:23.615Z,88.26
2022-11-30T05:30:26.865Z,88.51
2022-11-30T05:35:28.758Z,89.25
2022-11-30T05:40:32.622Z,89.27
2022-11-30T05:45:35.917Z,88.95
2022-11-30T05:50:37.830Z,89.30
2022-11-30T05:55:39.740Z,88.65
2022-11-30T06:00:43.015Z,89.57
2022-11-30T06:05:44.944Z,90.19
2022-11-30T06:10:47.447Z,90.79
2022-11-30T06:15:50.669Z,90.87
2022-11-30T06:20:52.738Z,90.26
2022-11-30T06:25:54.731Z,89.73
2022-11-30T06:30:59.511Z,89.85
2022-11-30T06:36:01.724Z,89.37
2022-11-30T06:41:05.908Z,88.80
2022-11-30T06:46:09.335Z,88.92
2022-11-30T06:51:11.373Z,87.93
2022-11-30T06:56:13.351Z,88.07
2022-11-30T07:01:17.056Z,87.52
2022-11-30T07:06:19.027Z,86.98
2022-11-30T07:11:20.993Z,87.65
2022-11-30T07:16:24.430Z,86.95
2022-11-30T07:21:26.434Z,86.13
2022-11-30T07:26:28.404Z,86.61
2022-11-30T07:31:36.159Z,85.14
2022-11-30T07:36:38.171Z,85.87
2022-11-30T07:41:41.186Z,85.36
2022-11-30T07:46:44.650Z,84.58
2022-11-30T07:51:46.573Z,85.59
2022-11-30T07:56:48.501Z,86.03
2022-11-30T08:01:51.936Z,85.85
2022-11-30T08:06:54.781Z,84.70
2022-11-30T08:11:56.698Z,84.64
2022-11-30T08:17:00.142Z,83.24
2022-11-30T08:22:02.270Z,82.67
2022-11-30T08:27:04.195Z,84.40
2022-11-30T08:32:07.442Z,83.09
2022-11-30T08:37:09.457Z,82.07
2022-11-30T08:42:12.209Z,83.23
2022-11-30T08:47:15.488Z,83.69
2022-11-30T08:52:18.702Z,83.92
2022-11-30T08:57:21.353Z,84.86
2022-11-30T09:02:24.930Z,83.81
2022-11-30T09:07:26.987Z,84.68
2022-11-30T09:12:28.944Z,84.59
2022-11-30T09:17:33.118Z,84.87
2022-11-30T09:22:35.212Z,84.90
2022-11-30T09:27:37.122Z,84.25
2022-11-30T09:32:40.379Z,85.07
2022-11-30T09:37:42.391Z,81.42
2022-11-30T09:42:57.123Z,81.70
2022-11-30T09:48:23.206Z,80.49
2022-11-30T09:53:35.516Z,82.56
2022-11-30T09:58:45.067Z,82.65
2022-11-30T10:03:48.611Z,82.69
2022-11-30T10:09:03.437Z,83.31
2022-11-30T10:14:29.557Z,83.44
2022-11-30T10:19:51.544Z,83.30
2022-11-30T10:25:16.719Z,81.65
2022-11-30T10:30:22.443Z,80.86
2022-11-30T10:35:34.817Z,79.89
2022-11-30T10:40:43.124Z,80.06
2022-11-30T10:45:47.891Z,79.07
2022-11-30T10:50:52.252Z,78.95
2022-11-30T10:56:00.201Z,80.40
2022-11-30T11:01:05.593Z,80.17
2022-11-30T11:06:15.341Z,79.90
2022-11-30T11:11:33.713Z,80.50
2022-11-30T11:16:50.999Z,81.45
2022-11-30T11:21:54.586Z,79.46
2022-11-30T11:26:57.380Z,80.90
2022-11-30T11:32:08.460Z,80.30
2022-11-30T11:37:20.176Z,81.26
2022-11-30T11:42:22.741Z,80.65
2022-11-30T11:47:27.451Z,81.53
2022-11-30T11:52:30.769Z,82.01
2022-11-30T11:57:38.804Z,81.15
2022-11-30T12:02:50.690Z,82.43
2022-11-30T12:08:04.947Z,81.63
2022-11-30T12:13:13.063Z,81.96
2022-11-30T12:18:23.968Z,82.55
2022-11-30T12:23:55.807Z,83.00
2022-11-30T12:29:17.472Z,82.98
2022-11-30T12:34:28.794Z,84.34
2022-11-30T12:39:41.892Z,84.79
2022-11-30T12:44:54.983Z,84.17
2022-11-30T12:50:10.556Z,85.18
2022-11-30T12:55:27.011Z,86.27
2022-11-30T13:00:39.748Z,86.68
2022-11-30T13:05:46.763Z,86.22
2022-11-30T13:10:54.464Z,85.44
2022-11-30T13:15:57.974Z,86.01
2022-11-30T13:21:06.997Z,85.23
2022-11-30T13:26:23.318Z,85.05
2022-11-30T13:31:29.051Z,86.39
2022-11-30T13:36:38.134Z,87.74
2022-11-30T13:41:43.662Z,87.27
2022-11-30T13:46:48.946Z,87.32
2022-11-30T13:52:13.641Z,88.23
2022-11-30T13:57:39.315Z,87.05
2022-11-30T14:03:13.799Z,86.77
2022-11-30T14:08:31.166Z,86.95
2022-11-30T14:13:34.459Z,87.28
2022-11-30T14:18:44.442Z,87.22
2022-11-30T14:23:56.928Z,87.13
2022-11-30T14:29:04.753Z,88.91
2022-11-30T14:34:11.766Z,89.36
2022-11-30T14:39:26.068Z,88.61
2022-11-30T14:44:34.782Z,87.99
2022-11-30T14:49:36.740Z,87.04
2022-11-30T14:54:46.684Z,87.11
2022-11-30T14:59:53.128Z,87.84
2022-11-30T15:04:56.895Z,88.22
2022-11-30T15:10:04.489Z,89.20
2022-11-30T15:15:18.116Z,88.71
2022-11-30T15:20:28.637Z,88.10
2022-11-30T15:25:37.410Z,88.03
2022-11-30T15:30:45.111Z,88.50
2022-11-30T15:36:15.835Z,87.98
2022-11-30T15:41:17.507Z,87.78
2022-11-30T15:46:32.519Z,88.48
2022-11-30T15:51:39.127Z,88.65
2022-11-30T15:56:41.082Z,88.33
2022-11-30T16:02:15.863Z,88.77
2022-11-30T16:07:18.979Z,88.99
2022-11-30T16:12:27.777Z,89.60
2022-11-30T16:17:32.624Z,89.15
2022-11-30T16:22:35.856Z,88.85
2022-11-30T16:27:37.825Z,88.95
2022-11-30T16:32:41.112Z,87.85
2022-11-30T16:37:43.039Z,87.93
2022-11-30T16:42:45.193Z,88.73
2022-11-30T16:47:48.523Z,87.36
2022-11-30T16:52:50.555Z,88.07
2022-11-30T16:57:54.225Z,88.31
2022-11-30T17:02:59.883Z,87.96
2022-11-30T17:08:02.576Z,88.38
2022-11-30T17:13:05.121Z,87.77
2022-11-30T17:18:08.378Z,87.66
2022-11-30T17:23:10.463Z,87.03
2022-11-30T17:28:12.409Z,87.44
2022-11-30T17:33:15.718Z,87.74
2022-11-30T17:38:17.959Z,88.09
2022-11-30T17:43:19.928Z,87.94
2022-11-30T17:48:23.220Z,88.32
2022-11-30T17:53:25.193Z,87.97
2022-11-30T17:58:32.550Z,88.63
2022-11-30T18:03:37.493Z,88.04
2022-11-30T18:08:40.138Z,88.17
2022-11-30T18:13:42.354Z,89.26
2022-11-30T18:18:48.512Z,89.24
2022-11-30T18:23:51.644Z,88.83
2022-11-30T18:28:59.869Z,89.90
2022-11-30T18:34:10.987Z,89.20
2022-11-30T18:39:13.442Z,88.91
2022-11-30T18:44:15.700Z,88.69
2022-11-30T18:49:37.422Z,89.21
2022-11-30T18:54:53.940Z,88.38
2022-11-30T19:00:01.043Z,88.28
2022-11-30T19:05:10.404Z,87.79
2022-11-30T19:10:15.355Z,87.30
2022-11-30T19:15:17.316Z,87.86
2022-11-30T19:20:20.615Z,87.88
2022-11-30T19:25:22.657Z,88.53
2022-11-30T19:30:26.292Z,87.70
2022-11-30T19:35:29.733Z,88.00
2022-11-30T19:40:31.922Z,87.08
2022-11-30T19:45:34.080Z,87.10
2022-11-30T19:50:37.966Z,87.78
2022-11-30T19:55:40.394Z,87.65
2022-11-30T20:00:45.846Z,87.33
2022-11-30T20:05:50.187Z,88.20
2022-11-30T20:10:52.113Z,88.75
2022-11-30T20:15:54.275Z,87.90
2022-11-30T20:20:57.901Z,88.49
2022-11-30T20:25:59.834Z,88.67
2022-11-30T20:31:02.218Z,88.21
2022-11-30T20:36:08.305Z,88.08
2022-11-30T20:41:12.028Z,88.99
2022-11-30T20:46:15.909Z,87.81
2022-11-30T20:51:30.623Z,87.68
2022-11-30T20:56:35.200Z,87.67
2022-11-30T21:01:37.374Z,88.63
2022-11-30T21:06:45.390Z,88.01
2022-11-30T21:11:48.642Z,87.94
2022-11-30T21:16:50.599Z,88.41
2022-11-30T21:21:55.413Z,88.79
2022-11-30T21:26:57.367Z,87.21
2022-11-30T21:31:59.334Z,86.65
2022-11-30T21:37:02.675Z,87.64
2022-11-30T21:42:04.668Z,86.89
2022-11-30T21:47:08.457Z,87.68
2022-11-30T21:52:11.747Z,87.10
2022-11-30T21:57:13.728Z,86.92
2022-11-30T22:02:15.722Z,86.81
2022-11-30T22:07:31.717Z,86.14
2022-11-30T22:12:33.834Z,87.00
2022-11-30T22:17:35.767Z,86.85
2022-11-30T22:22:39.045Z,86.95
2022-11-30T22:27:40.987Z,87.08
2022-11-30T22:32:43.705Z,86.27
2022-11-30T22:37:47.132Z,86.33
2022-11-30T22:42:49.031Z,86.17
2022-11-30T22:47:50.992Z,86.20
2022-11-30T22:53:02.774Z,86.68
2022-11-30T22:58:05.344Z,85.23
2022-11-30T23:03:07.368Z,85.26
2022-11-30T23:08:10.913Z,84.96
2022-11-30T23:13:12.860Z,85.22
2022-11-30T23:18:14.812Z,85.90
2022-11-30T23:23:18.457Z,86.26
2022-11-30T23:28:20.628Z,86.76
2022-11-30T23:33:22.522Z,86.26
2022-11-30T23:38:25.810Z,86.78
2022-11-30T23:43:27.724Z,86.17
2022-11-30T23:48:30.048Z,85.99
2022-11-30T23:53:34.012Z,85.88
2022-11-30T23:58:36.183Z,85.98
